sensor_id;sensor_type;location;lat;lon;timestamp;pressure;altitude;pressure_sealevel;temperature;humidity
55934;BME280;41839;41.386;2.082;2023-04-04T00:01:55;99498.88;;;17.23;41.81
55934;BME280;41839;41.386;2.082;2023-04-04T00:04:21;99497.19;;;17.26;41.37
55934;BME280;41839;41.386;2.082;2023-04-04T00:06:46;99499.78;;;17.26;41.85
55934;BME280;41839;41.386;2.082;2023-04-04T00:09:12;99503.25;;;17.25;42.01
55934;BME280;41839;41.386;2.082;2023-04-04T00:11:38;99503.19;;;17.21;42.21
55934;BME280;41839;41.386;2.082;2023-04-04T00:14:05;99506.53;;;17.12;42.38
55934;BME280;41839;41.386;2.082;2023-04-04T00:16:30;99505.66;;;17.12;42.42
55934;BME280;41839;41.386;2.082;2023-04-04T00:18:55;99506.53;;;17.11;42.18
55934;BME280;41839;41.386;2.082;2023-04-04T00:21:20;99503.03;;;17.09;42.44
55934;BME280;41839;41.386;2.082;2023-04-04T00:23:47;99506.53;;;17.11;42.35
55934;BME280;41839;41.386;2.082;2023-04-04T00:26:13;99510.03;;;17.13;42.36
55934;BME280;41839;41.386;2.082;2023-04-04T00:28:38;99504.72;;;17.05;42.43
55934;BME280;41839;41.386;2.082;2023-04-04T00:31:03;99503.72;;;16.95;42.79
55934;BME280;41839;41.386;2.082;2023-04-04T00:33:29;99510.50;;;16.87;43.02
55934;BME280;41839;41.386;2.082;2023-04-04T00:35:54;99500.09;;;16.84;43.15
55934;BME280;41839;41.386;2.082;2023-04-04T00:38:19;99500.16;;;16.89;43.20
55934;BME280;41839;41.386;2.082;2023-04-04T00:40:46;99498.44;;;16.89;43.10
55934;BME280;41839;41.386;2.082;2023-04-04T00:43:12;99496.75;;;16.91;43.09
55934;BME280;41839;41.386;2.082;2023-04-04T00:45:38;99488.94;;;16.91;43.42
55934;BME280;41839;41.386;2.082;2023-04-04T00:48:03;99488.94;;;16.93;43.18
55934;BME280;41839;41.386;2.082;2023-04-04T00:50:28;99482.03;;;16.92;43.35
55934;BME280;41839;41.386;2.082;2023-04-04T00:52:56;99476.78;;;16.89;43.52
55934;BME280;41839;41.386;2.082;2023-04-04T00:55:22;99476.78;;;16.89;43.64
55934;BME280;41839;41.386;2.082;2023-04-04T00:57:47;99477.56;;;16.83;43.90
55934;BME280;41839;41.386;2.082;2023-04-04T01:00:13;99470.69;;;16.87;43.76
55934;BME280;41839;41.386;2.082;2023-04-04T01:02:39;99469.81;;;16.86;44.51
55934;BME280;41839;41.386;2.082;2023-04-04T01:05:05;99467.16;;;16.83;44.94
55934;BME280;41839;41.386;2.082;2023-04-04T01:07:30;99460.91;;;16.72;45.49
55934;BME280;41839;41.386;2.082;2023-04-04T01:09:56;99463.41;;;16.66;45.88
55934;BME280;41839;41.386;2.082;2023-04-04T01:12:22;99461.72;;;16.66;46.19
55934;BME280;41839;41.386;2.082;2023-04-04T01:14:47;99458.19;;;16.63;46.62
55934;BME280;41839;41.386;2.082;2023-04-04T01:17:13;99464.19;;;16.58;46.87
55934;BME280;41839;41.386;2.082;2023-04-04T01:22:19;99465.16;;;16.65;47.45
55934;BME280;41839;41.386;2.082;2023-04-04T01:24:45;99467.75;;;16.64;47.32
55934;BME280;41839;41.386;2.082;2023-04-04T01:27:11;99471.19;;;16.64;47.75
55934;BME280;41839;41.386;2.082;2023-04-04T01:29:37;99468.66;;;16.67;47.74
55934;BME280;41839;41.386;2.082;2023-04-04T01:32:12;99460.88;;;16.67;47.76
55934;BME280;41839;41.386;2.082;2023-04-04T01:39:47;99458.75;;;16.42;48.64
55934;BME280;41839;41.386;2.082;2023-04-04T01:42:13;99456.06;;;16.37;48.80
55934;BME280;41839;41.386;2.082;2023-04-04T01:44:39;99464.72;;;16.37;48.85
55934;BME280;41839;41.386;2.082;2023-04-04T01:47:05;99456.13;;;16.40;48.61
55934;BME280;41839;41.386;2.082;2023-04-04T01:49:33;99452.56;;;16.35;48.65
55934;BME280;41839;41.386;2.082;2023-04-04T01:51:59;99457.75;;;16.33;48.82
55934;BME280;41839;41.386;2.082;2023-04-04T01:54:25;99453.47;;;16.35;49.13
55934;BME280;41839;41.386;2.082;2023-04-04T01:56:52;99451.59;;;16.28;49.27
55934;BME280;41839;41.386;2.082;2023-04-04T01:59:17;99451.56;;;16.24;49.60
55934;BME280;41839;41.386;2.082;2023-04-04T02:01:42;99439.34;;;16.17;49.71
55934;BME280;41839;41.386;2.082;2023-04-04T02:04:08;99440.94;;;16.10;49.92
55934;BME280;41839;41.386;2.082;2023-04-04T02:06:36;99441.75;;;16.06;50.06
55934;BME280;41839;41.386;2.082;2023-04-04T02:09:01;99429.59;;;16.03;50.22
55934;BME280;41839;41.386;2.082;2023-04-04T02:11:27;99437.09;;;15.88;50.79
55934;BME280;41839;41.386;2.082;2023-04-04T02:13:52;99424.03;;;15.80;51.18
55934;BME280;41839;41.386;2.082;2023-04-04T02:16:18;99424.56;;;15.64;51.77
55934;BME280;41839;41.386;2.082;2023-04-04T02:18:43;99424.53;;;15.62;52.23
55934;BME280;41839;41.386;2.082;2023-04-04T02:21:08;99422.88;;;15.66;52.10
55934;BME280;41839;41.386;2.082;2023-04-04T02:23:34;99421.38;;;15.77;51.95
55934;BME280;41839;41.386;2.082;2023-04-04T02:25:59;99417.16;;;15.84;51.85
55934;BME280;41839;41.386;2.082;2023-04-04T02:28:26;99420.72;;;15.89;51.77
55934;BME280;41839;41.386;2.082;2023-04-04T02:30:52;99405.06;;;15.83;51.87
55934;BME280;41839;41.386;2.082;2023-04-04T02:33:17;99404.16;;;15.82;52.21
55934;BME280;41839;41.386;2.082;2023-04-04T02:35:43;99400.69;;;15.80;52.24
55934;BME280;41839;41.386;2.082;2023-04-04T02:38:08;99404.84;;;15.71;52.53
55934;BME280;41839;41.386;2.082;2023-04-04T02:40:33;99405.59;;;15.66;52.60
55934;BME280;41839;41.386;2.082;2023-04-04T02:43:00;99405.31;;;15.51;52.62
55934;BME280;41839;41.386;2.082;2023-04-04T02:45:25;99400.22;;;15.56;52.74
55934;BME280;41839;41.386;2.082;2023-04-04T02:47:50;99393.19;;;15.49;52.74
55934;BME280;41839;41.386;2.082;2023-04-04T02:50:16;99392.16;;;15.40;53.22
55934;BME280;41839;41.386;2.082;2023-04-04T02:52:41;99384.50;;;15.48;52.84
55934;BME280;41839;41.386;2.082;2023-04-04T02:55:08;99362.69;;;15.35;53.01
55934;BME280;41839;41.386;2.082;2023-04-04T02:57:33;99385.19;;;15.36;53.20
55934;BME280;41839;41.386;2.082;2023-04-04T02:59:59;99384.34;;;15.37;53.13
55934;BME280;41839;41.386;2.082;2023-04-04T03:02:24;99381.97;;;15.50;52.71
55934;BME280;41839;41.386;2.082;2023-04-04T03:04:50;99378.72;;;15.61;52.44
55934;BME280;41839;41.386;2.082;2023-04-04T03:07:15;99374.31;;;15.57;52.55
55934;BME280;41839;41.386;2.082;2023-04-04T03:09:41;99379.47;;;15.56;52.79
55934;BME280;41839;41.386;2.082;2023-04-04T03:12:12;99369.13;;;15.56;52.63
55934;BME280;41839;41.386;2.082;2023-04-04T03:14:37;99370.69;;;15.46;52.99
55934;BME280;41839;41.386;2.082;2023-04-04T03:17:02;99381.81;;;15.40;53.29
55934;BME280;41839;41.386;2.082;2023-04-04T03:19:28;99369.69;;;15.39;53.26
55934;BME280;41839;41.386;2.082;2023-04-04T03:21:54;99369.59;;;15.35;53.33
55934;BME280;41839;41.386;2.082;2023-04-04T03:24:19;99366.78;;;15.21;53.59
55934;BME280;41839;41.386;2.082;2023-04-04T03:26:44;99352.03;;;15.18;53.35
55934;BME280;41839;41.386;2.082;2023-04-04T03:29:10;99360.50;;;15.10;53.42
55934;BME280;41839;41.386;2.082;2023-04-04T03:31:35;99353.25;;;14.92;53.57
55934;BME280;41839;41.386;2.082;2023-04-04T03:34:01;99349.47;;;14.74;53.72
55934;BME280;41839;41.386;2.082;2023-04-04T03:36:29;99348.78;;;14.85;53.31
55934;BME280;41839;41.386;2.082;2023-04-04T03:38:54;99348.66;;;14.79;52.99
55934;BME280;41839;41.386;2.082;2023-04-04T03:41:19;99336.53;;;14.76;52.80
55934;BME280;41839;41.386;2.082;2023-04-04T03:43:45;99348.59;;;14.75;52.54
55934;BME280;41839;41.386;2.082;2023-04-04T03:46:10;99345.75;;;14.63;52.53
55934;BME280;41839;41.386;2.082;2023-04-04T03:48:36;99339.78;;;14.67;51.66
55934;BME280;41839;41.386;2.082;2023-04-04T03:51:02;99338.06;;;14.65;51.42
55934;BME280;41839;41.386;2.082;2023-04-04T03:53:29;99343.13;;;14.60;51.17
55934;BME280;41839;41.386;2.082;2023-04-04T03:55:55;99343.78;;;14.51;51.34
55934;BME280;41839;41.386;2.082;2023-04-04T03:58:21;99338.56;;;14.50;50.86
55934;BME280;41839;41.386;2.082;2023-04-04T04:00:47;99288.75;;;14.21;50.40
55934;BME280;41839;41.386;2.082;2023-04-04T04:03:13;99322.72;;;14.36;49.76
55934;BME280;41839;41.386;2.082;2023-04-04T04:05:38;99307.13;;;14.32;48.80
55934;BME280;41839;41.386;2.082;2023-04-04T04:08:04;99317.34;;;14.27;48.56
55934;BME280;41839;41.386;2.082;2023-04-04T04:10:29;99326.91;;;14.29;48.42
55934;BME280;41839;41.386;2.082;2023-04-04T04:12:55;99344.34;;;14.40;47.95
55934;BME280;41839;41.386;2.082;2023-04-04T04:15:21;99356.91;;;14.59;47.40
55934;BME280;41839;41.386;2.082;2023-04-04T04:17:46;99264.22;;;14.02;46.83
55934;BME280;41839;41.386;2.082;2023-04-04T04:20:12;99344.47;;;14.44;46.79
55934;BME280;41839;41.386;2.082;2023-04-04T04:22:37;99313.53;;;14.10;46.65
55934;BME280;41839;41.386;2.082;2023-04-04T04:25:03;99350.19;;;14.29;46.04
55934;BME280;41839;41.386;2.082;2023-04-04T04:27:29;99336.00;;;14.12;45.85
55934;BME280;41839;41.386;2.082;2023-04-04T04:29:55;99327.84;;;13.95;45.79
55934;BME280;41839;41.386;2.082;2023-04-04T04:32:21;99350.06;;;13.87;46.14
55934;BME280;41839;41.386;2.082;2023-04-04T04:34:46;99328.13;;;13.70;46.06
55934;BME280;41839;41.386;2.082;2023-04-04T04:37:12;99343.66;;;13.71;46.46
55934;BME280;41839;41.386;2.082;2023-04-04T04:39:37;99375.47;;;13.69;46.71
55934;BME280;41839;41.386;2.082;2023-04-04T04:42:03;99371.50;;;13.83;46.30
55934;BME280;41839;41.386;2.082;2023-04-04T04:44:28;99361.22;;;13.84;46.34
55934;BME280;41839;41.386;2.082;2023-04-04T04:46:54;99326.81;;;13.52;46.42
55934;BME280;41839;41.386;2.082;2023-04-04T04:49:20;99360.31;;;13.84;46.25
55934;BME280;41839;41.386;2.082;2023-04-04T04:51:45;99367.63;;;13.66;46.62
55934;BME280;41839;41.386;2.082;2023-04-04T04:54:12;99371.78;;;13.59;46.68
55934;BME280;41839;41.386;2.082;2023-04-04T04:56:37;99368.41;;;13.61;46.93
55934;BME280;41839;41.386;2.082;2023-04-04T04:59:03;99291.63;;;13.23;46.72
55934;BME280;41839;41.386;2.082;2023-04-04T05:01:28;99366.16;;;13.75;46.68
55934;BME280;41839;41.386;2.082;2023-04-04T05:03:54;99359.69;;;13.93;46.13
55934;BME280;41839;41.386;2.082;2023-04-04T05:06:19;99364.69;;;13.87;46.37
55934;BME280;41839;41.386;2.082;2023-04-04T05:08:45;99361.44;;;13.94;46.35
55934;BME280;41839;41.386;2.082;2023-04-04T05:14:32;99331.69;;;13.40;47.37
55934;BME280;41839;41.386;2.082;2023-04-04T05:16:57;99373.72;;;13.68;47.28
55934;BME280;41839;41.386;2.082;2023-04-04T05:19:22;99373.50;;;13.58;47.74
55934;BME280;41839;41.386;2.082;2023-04-04T05:21:48;99333.91;;;13.26;48.02
55934;BME280;41839;41.386;2.082;2023-04-04T05:24:13;99380.28;;;13.55;48.11
55934;BME280;41839;41.386;2.082;2023-04-04T05:26:41;99379.69;;;13.65;48.02
55934;BME280;41839;41.386;2.082;2023-04-04T05:29:06;99371.44;;;13.45;48.40
55934;BME280;41839;41.386;2.082;2023-04-04T05:31:32;99342.38;;;13.22;48.42
55934;BME280;41839;41.386;2.082;2023-04-04T05:33:58;99380.53;;;13.31;48.95
55934;BME280;41839;41.386;2.082;2023-04-04T05:36:23;99370.03;;;13.25;49.11
55934;BME280;41839;41.386;2.082;2023-04-04T05:38:48;99354.69;;;13.31;48.84
55934;BME280;41839;41.386;2.082;2023-04-04T05:41:14;99376.31;;;13.34;48.89
55934;BME280;41839;41.386;2.082;2023-04-04T05:43:40;99377.81;;;13.26;49.38
55934;BME280;41839;41.386;2.082;2023-04-04T05:46:05;99378.84;;;13.33;49.08
55934;BME280;41839;41.386;2.082;2023-04-04T05:48:30;99380.66;;;13.35;49.16
55934;BME280;41839;41.386;2.082;2023-04-04T05:50:56;99379.72;;;13.33;49.40
55934;BME280;41839;41.386;2.082;2023-04-04T05:53:21;99386.16;;;13.18;50.05
55934;BME280;41839;41.386;2.082;2023-04-04T05:55:51;99395.66;;;13.19;49.83
55934;BME280;41839;41.386;2.082;2023-04-04T05:58:17;99399.19;;;13.22;49.79
55934;BME280;41839;41.386;2.082;2023-04-04T06:00:42;99411.75;;;13.38;49.16
55934;BME280;41839;41.386;2.082;2023-04-04T06:03:08;99400.44;;;13.35;49.06
55934;BME280;41839;41.386;2.082;2023-04-04T06:05:34;99412.91;;;13.20;49.38
55934;BME280;41839;41.386;2.082;2023-04-04T06:07:59;99396.88;;;13.31;48.91
55934;BME280;41839;41.386;2.082;2023-04-04T06:10:25;99377.28;;;13.08;48.87
55934;BME280;41839;41.386;2.082;2023-04-04T06:12:50;99416.59;;;13.28;48.83
55934;BME280;41839;41.386;2.082;2023-04-04T06:15:16;99398.84;;;13.10;48.94
55934;BME280;41839;41.386;2.082;2023-04-04T06:17:41;99427.16;;;13.35;48.74
55934;BME280;41839;41.386;2.082;2023-04-04T06:20:07;99434.75;;;13.31;48.99
55934;BME280;41839;41.386;2.082;2023-04-04T06:22:33;99375.06;;;12.90;49.09
55934;BME280;41839;41.386;2.082;2023-04-04T06:24:59;99392.63;;;13.02;49.08
55934;BME280;41839;41.386;2.082;2023-04-04T06:27:24;99416.19;;;13.14;48.65
55934;BME280;41839;41.386;2.082;2023-04-04T06:29:50;99410.34;;;13.20;48.47
55934;BME280;41839;41.386;2.082;2023-04-04T06:32:16;99453.25;;;13.45;48.23
55934;BME280;41839;41.386;2.082;2023-04-04T06:34:41;99449.66;;;13.40;48.12
55934;BME280;41839;41.386;2.082;2023-04-04T06:37:07;99450.03;;;13.53;48.01
55934;BME280;41839;41.386;2.082;2023-04-04T06:39:32;99432.69;;;13.49;47.53
55934;BME280;41839;41.386;2.082;2023-04-04T06:41:59;99453.69;;;13.61;47.76
55934;BME280;41839;41.386;2.082;2023-04-04T06:44:24;99457.19;;;13.64;47.28
55934;BME280;41839;41.386;2.082;2023-04-04T06:46:50;99458.13;;;13.67;47.26
55934;BME280;41839;41.386;2.082;2023-04-04T06:49:15;99465.28;;;13.77;47.18
55934;BME280;41839;41.386;2.082;2023-04-04T06:51:41;99441.69;;;13.64;47.05
55934;BME280;41839;41.386;2.082;2023-04-04T06:54:07;99435.50;;;13.58;47.00
55934;BME280;41839;41.386;2.082;2023-04-04T06:56:32;99473.91;;;13.78;46.92
55934;BME280;41839;41.386;2.082;2023-04-04T06:58:58;99482.00;;;13.90;46.51
55934;BME280;41839;41.386;2.082;2023-04-04T07:01:23;99478.34;;;13.82;46.33
55934;BME280;41839;41.386;2.082;2023-04-04T07:03:52;99467.53;;;13.97;46.09
55934;BME280;41839;41.386;2.082;2023-04-04T07:06:18;99466.88;;;14.05;45.73
55934;BME280;41839;41.386;2.082;2023-04-04T07:08:46;99484.63;;;14.26;45.43
55934;BME280;41839;41.386;2.082;2023-04-04T07:11:11;99487.38;;;14.33;45.08
55934;BME280;41839;41.386;2.082;2023-04-04T07:13:37;99488.94;;;14.26;45.33
55934;BME280;41839;41.386;2.082;2023-04-04T07:16:03;99473.44;;;14.27;44.99
55934;BME280;41839;41.386;2.082;2023-04-04T07:18:28;99480.91;;;14.50;44.65
55934;BME280;41839;41.386;2.082;2023-04-04T07:20:54;99480.63;;;14.75;44.14
55934;BME280;41839;41.386;2.082;2023-04-04T07:23:19;99495.66;;;14.92;43.67
55934;BME280;41839;41.386;2.082;2023-04-04T07:25:46;99484.34;;;14.87;43.81
55934;BME280;41839;41.386;2.082;2023-04-04T07:28:11;99482.78;;;14.95;43.61
55934;BME280;41839;41.386;2.082;2023-04-04T07:30:36;99468.31;;;15.05;43.21
55934;BME280;41839;41.386;2.082;2023-04-04T07:33:02;99485.66;;;15.51;42.43
55934;BME280;41839;41.386;2.082;2023-04-04T07:35:29;99508.00;;;15.87;41.60
55934;BME280;41839;41.386;2.082;2023-04-04T07:37:54;99507.47;;;16.05;40.94
55934;BME280;41839;41.386;2.082;2023-04-04T07:40:20;99507.97;;;16.35;40.18
55934;BME280;41839;41.386;2.082;2023-04-04T07:42:47;99514.63;;;16.74;41.63
55934;BME280;41839;41.386;2.082;2023-04-04T07:45:16;99523.06;;;17.16;42.83
55934;BME280;41839;41.386;2.082;2023-04-04T07:47:43;99484.34;;;17.40;40.01
55934;BME280;41839;41.386;2.082;2023-04-04T07:50:12;99509.03;;;17.76;39.18
55934;BME280;41839;41.386;2.082;2023-04-04T07:52:38;99516.50;;;18.25;39.74
55934;BME280;41839;41.386;2.082;2023-04-04T07:55:04;99521.09;;;18.59;37.49
55934;BME280;41839;41.386;2.082;2023-04-04T07:57:32;99529.22;;;18.98;37.63
55934;BME280;41839;41.386;2.082;2023-04-04T07:59:57;99526.72;;;19.19;35.66
55934;BME280;41839;41.386;2.082;2023-04-04T08:02:24;99526.91;;;19.59;34.82
55934;BME280;41839;41.386;2.082;2023-04-04T08:04:49;99503.50;;;19.71;34.18
55934;BME280;41839;41.386;2.082;2023-04-04T08:07:15;99523.59;;;20.17;33.66
55934;BME280;41839;41.386;2.082;2023-04-04T08:09:40;99527.97;;;20.39;32.55
55934;BME280;41839;41.386;2.082;2023-04-04T08:12:06;99532.34;;;20.56;32.25
55934;BME280;41839;41.386;2.082;2023-04-04T08:14:32;99526.22;;;20.73;32.25
55934;BME280;41839;41.386;2.082;2023-04-04T08:16:58;99525.34;;;20.87;31.48
55934;BME280;41839;41.386;2.082;2023-04-04T08:19:23;99528.81;;;20.95;31.48
55934;BME280;41839;41.386;2.082;2023-04-04T08:21:49;99528.84;;;20.87;32.10
55934;BME280;41839;41.386;2.082;2023-04-04T08:24:14;99520.13;;;20.59;32.22
55934;BME280;41839;41.386;2.082;2023-04-04T08:26:40;99539.31;;;20.72;32.29
55934;BME280;41839;41.386;2.082;2023-04-04T08:29:06;99539.28;;;20.77;32.50
55934;BME280;41839;41.386;2.082;2023-04-04T08:31:31;99517.50;;;20.33;32.34
55934;BME280;41839;41.386;2.082;2023-04-04T08:33:58;99546.25;;;20.75;32.26
55934;BME280;41839;41.386;2.082;2023-04-04T08:36:25;99554.09;;;20.88;32.58
55934;BME280;41839;41.386;2.082;2023-04-04T08:38:50;99555.00;;;20.66;32.98
55934;BME280;41839;41.386;2.082;2023-04-04T08:41:16;99553.22;;;20.74;33.38
55934;BME280;41839;41.386;2.082;2023-04-04T08:43:43;99564.56;;;20.58;34.46
55934;BME280;41839;41.386;2.082;2023-04-04T08:46:10;99553.19;;;20.43;33.85
55934;BME280;41839;41.386;2.082;2023-04-04T08:48:38;99531.44;;;20.27;34.45
55934;BME280;41839;41.386;2.082;2023-04-04T08:51:06;99537.50;;;20.22;34.62
55934;BME280;41839;41.386;2.082;2023-04-04T08:53:35;99554.88;;;19.94;36.22
55934;BME280;41839;41.386;2.082;2023-04-04T08:56:01;99575.75;;;19.91;36.88
55934;BME280;41839;41.386;2.082;2023-04-04T08:58:27;99581.84;;;19.82;37.78
55934;BME280;41839;41.386;2.082;2023-04-04T09:00:53;99587.09;;;19.99;37.83
55934;BME280;41839;41.386;2.082;2023-04-04T09:03:24;99544.25;;;19.49;39.06
55934;BME280;41839;41.386;2.082;2023-04-04T09:05:50;99543.41;;;19.59;39.85
55934;BME280;41839;41.386;2.082;2023-04-04T09:08:17;99576.47;;;19.51;41.05
55934;BME280;41839;41.386;2.082;2023-04-04T09:10:43;99515.44;;;19.19;40.68
55934;BME280;41839;41.386;2.082;2023-04-04T09:13:09;99573.00;;;19.62;40.86
55934;BME280;41839;41.386;2.082;2023-04-04T09:15:37;99540.00;;;19.65;39.99
55934;BME280;41839;41.386;2.082;2023-04-04T09:18:03;99568.81;;;19.88;39.10
55934;BME280;41839;41.386;2.082;2023-04-04T09:20:49;99583.66;;;20.14;38.30
55934;BME280;41839;41.386;2.082;2023-04-04T09:23:19;99588.75;;;19.77;38.60
55934;BME280;41839;41.386;2.082;2023-04-04T09:25:45;99587.75;;;19.53;39.71
55934;BME280;41839;41.386;2.082;2023-04-04T09:28:14;99575.72;;;19.88;39.77
55934;BME280;41839;41.386;2.082;2023-04-04T09:30:40;99534.81;;;19.73;40.17
55934;BME280;41839;41.386;2.082;2023-04-04T09:33:08;99579.31;;;20.28;39.27
55934;BME280;41839;41.386;2.082;2023-04-04T09:35:36;99568.00;;;20.14;38.56
55934;BME280;41839;41.386;2.082;2023-04-04T09:38:05;99566.22;;;20.16;38.51
55934;BME280;41839;41.386;2.082;2023-04-04T09:40:31;99563.56;;;19.87;40.08
55934;BME280;41839;41.386;2.082;2023-04-04T09:43:00;99588.84;;;20.01;40.12
55934;BME280;41839;41.386;2.082;2023-04-04T09:45:26;99597.56;;;20.19;40.73
55934;BME280;41839;41.386;2.082;2023-04-04T09:47:52;99604.56;;;20.21;41.09
55934;BME280;41839;41.386;2.082;2023-04-04T09:50:23;99588.88;;;20.24;40.34
55934;BME280;41839;41.386;2.082;2023-04-04T09:52:49;99615.97;;;21.00;39.57
55934;BME280;41839;41.386;2.082;2023-04-04T09:55:16;99607.19;;;21.47;38.93
55934;BME280;41839;41.386;2.082;2023-04-04T09:57:42;99554.88;;;21.27;38.92
55934;BME280;41839;41.386;2.082;2023-04-04T10:00:10;99566.22;;;21.38;37.91
55934;BME280;41839;41.386;2.082;2023-04-04T10:02:37;99605.50;;;20.89;38.66
55934;BME280;41839;41.386;2.082;2023-04-04T10:05:03;99629.88;;;21.33;38.04
55934;BME280;41839;41.386;2.082;2023-04-04T10:07:31;99597.66;;;20.68;38.68
55934;BME280;41839;41.386;2.082;2023-04-04T10:10:00;99625.56;;;20.84;38.38
55934;BME280;41839;41.386;2.082;2023-04-04T10:12:26;99624.66;;;21.47;37.34
55934;BME280;41839;41.386;2.082;2023-04-04T10:14:55;99632.34;;;21.91;36.51
55934;BME280;41839;41.386;2.082;2023-04-04T10:17:22;99628.69;;;22.29;35.98
55934;BME280;41839;41.386;2.082;2023-04-04T10:19:48;99635.63;;;22.35;35.33
55934;BME280;41839;41.386;2.082;2023-04-04T10:22:14;99615.88;;;21.55;36.64
55934;BME280;41839;41.386;2.082;2023-04-04T10:24:41;99630.44;;;22.25;35.20
55934;BME280;41839;41.386;2.082;2023-04-04T10:27:06;99602.91;;;21.09;37.28
55934;BME280;41839;41.386;2.082;2023-04-04T10:29:32;99600.25;;;21.31;36.69
55934;BME280;41839;41.386;2.082;2023-04-04T10:32:05;99604.44;;;21.87;35.80
55934;BME280;41839;41.386;2.082;2023-04-04T10:34:45;99593.97;;;21.79;36.18
55934;BME280;41839;41.386;2.082;2023-04-04T10:37:14;99604.91;;;22.58;34.52
55934;BME280;41839;41.386;2.082;2023-04-04T10:42:25;99600.53;;;22.59;33.81
55934;BME280;41839;41.386;2.082;2023-04-04T10:44:54;99624.63;;;21.53;35.80
55934;BME280;41839;41.386;2.082;2023-04-04T10:47:21;99581.09;;;21.04;36.34
55934;BME280;41839;41.386;2.082;2023-04-04T10:49:49;99628.97;;;21.57;36.31
55934;BME280;41839;41.386;2.082;2023-04-04T10:52:20;99604.63;;;21.03;37.01
55934;BME280;41839;41.386;2.082;2023-04-04T10:54:49;99594.19;;;20.89;37.19
55934;BME280;41839;41.386;2.082;2023-04-04T10:57:16;99580.25;;;20.65;37.26
55934;BME280;41839;41.386;2.082;2023-04-04T11:00:02;99636.78;;;20.37;38.63
55934;BME280;41839;41.386;2.082;2023-04-04T11:05:34;99598.53;;;20.53;38.22
55934;BME280;41839;41.386;2.082;2023-04-04T11:08:10;99630.75;;;20.44;38.28
55934;BME280;41839;41.386;2.082;2023-04-04T11:10:40;99641.22;;;21.26;36.91
55934;BME280;41839;41.386;2.082;2023-04-04T11:13:33;99641.94;;;21.89;35.87
55934;BME280;41839;41.386;2.082;2023-04-04T11:16:10;99583.88;;;22.67;34.04
55934;BME280;41839;41.386;2.082;2023-04-04T11:28:55;99592.19;;;21.94;35.25
55934;BME280;41839;41.386;2.082;2023-04-04T11:31:22;99548.84;;;21.10;36.59
55934;BME280;41839;41.386;2.082;2023-04-04T11:39:14;99595.88;;;21.21;36.90
55934;BME280;41839;41.386;2.082;2023-04-04T11:44:28;99620.34;;;20.69;37.79
55934;BME280;41839;41.386;2.082;2023-04-04T11:49:32;99604.66;;;20.72;37.03
55934;BME280;41839;41.386;2.082;2023-04-04T11:52:03;99564.50;;;20.04;38.14
55934;BME280;41839;41.386;2.082;2023-04-04T11:54:29;99563.56;;;19.93;38.20
55934;BME280;41839;41.386;2.082;2023-04-04T11:56:56;99600.19;;;20.17;38.69
55934;BME280;41839;41.386;2.082;2023-04-04T11:59:22;99507.63;;;19.25;38.82
55934;BME280;41839;41.386;2.082;2023-04-04T12:01:48;99579.94;;;19.59;39.10
55934;BME280;41839;41.386;2.082;2023-04-04T12:04:17;99563.53;;;19.70;38.84
55934;BME280;41839;41.386;2.082;2023-04-04T12:06:45;99597.44;;;19.67;39.08
55934;BME280;41839;41.386;2.082;2023-04-04T12:09:12;99591.16;;;19.42;39.54
55934;BME280;41839;41.386;2.082;2023-04-04T12:11:42;99564.28;;;19.59;38.97
55934;BME280;41839;41.386;2.082;2023-04-04T12:14:19;99585.31;;;19.90;38.86
55934;BME280;41839;41.386;2.082;2023-04-04T12:16:51;99588.81;;;19.95;39.25
55934;BME280;41839;41.386;2.082;2023-04-04T12:19:17;99592.25;;;19.73;40.01
55934;BME280;41839;41.386;2.082;2023-04-04T12:21:44;99561.75;;;19.67;39.90
55934;BME280;41839;41.386;2.082;2023-04-04T12:24:11;99587.97;;;19.99;39.50
55934;BME280;41839;41.386;2.082;2023-04-04T12:26:39;99587.91;;;19.84;39.86
55934;BME280;41839;41.386;2.082;2023-04-04T12:29:06;99547.06;;;20.01;39.03
55934;BME280;41839;41.386;2.082;2023-04-04T12:31:34;99564.44;;;19.87;39.74
55934;BME280;41839;41.386;2.082;2023-04-04T12:33:59;99572.13;;;19.63;39.97
55934;BME280;41839;41.386;2.082;2023-04-04T12:36:29;99551.94;;;19.17;40.89
55934;BME280;41839;41.386;2.082;2023-04-04T12:39:03;99553.56;;;19.04;41.11
55934;BME280;41839;41.386;2.082;2023-04-04T12:41:30;99539.72;;;19.10;40.69
55934;BME280;41839;41.386;2.082;2023-04-04T12:44:04;99577.31;;;19.53;40.30
55934;BME280;41839;41.386;2.082;2023-04-04T12:46:38;99591.78;;;18.99;41.91
55934;BME280;41839;41.386;2.082;2023-04-04T12:49:09;99590.84;;;18.91;41.80
55934;BME280;41839;41.386;2.082;2023-04-04T12:51:36;99526.41;;;18.72;41.74
55934;BME280;41839;41.386;2.082;2023-04-04T12:54:06;99531.81;;;18.96;41.24
55934;BME280;41839;41.386;2.082;2023-04-04T12:56:33;99581.59;;;19.36;40.75
55934;BME280;41839;41.386;2.082;2023-04-04T12:59:03;99554.69;;;19.46;40.12
55934;BME280;41839;41.386;2.082;2023-04-04T13:01:36;99491.84;;;18.94;40.85
55934;BME280;41839;41.386;2.082;2023-04-04T13:04:02;99550.78;;;18.74;41.94
55934;BME280;41839;41.386;2.082;2023-04-04T13:06:31;99580.47;;;18.93;41.65
55934;BME280;41839;41.386;2.082;2023-04-04T13:08:56;99509.78;;;18.54;42.13
55934;BME280;41839;41.386;2.082;2023-04-04T13:11:22;99576.91;;;18.84;41.85
55934;BME280;41839;41.386;2.082;2023-04-04T13:13:59;99576.72;;;18.66;42.75
55934;BME280;41839;41.386;2.082;2023-04-04T13:16:34;99570.78;;;18.79;42.17
55934;BME280;41839;41.386;2.082;2023-04-04T13:19:01;99556.03;;;18.80;42.41
55934;BME280;41839;41.386;2.082;2023-04-04T13:21:28;99572.59;;;18.86;41.85
55934;BME280;41839;41.386;2.082;2023-04-04T13:23:53;99520.44;;;18.80;41.31
55934;BME280;41839;41.386;2.082;2023-04-04T13:26:19;99559.69;;;19.05;40.78
55934;BME280;41839;41.386;2.082;2023-04-04T13:28:45;99539.78;;;19.22;40.72
55934;BME280;41839;41.386;2.082;2023-04-04T13:31:11;99526.72;;;19.18;40.48
55934;BME280;41839;41.386;2.082;2023-04-04T13:33:37;99575.38;;;19.16;40.96
55934;BME280;41839;41.386;2.082;2023-04-04T13:36:03;99528.31;;;18.91;41.42